createdAt,value
2018-11-05T00:00:32.491Z,104.53
2018-11-05T00:03:00.740Z,110.63
2018-11-05T00:05:28.955Z,112.40
2018-11-05T00:07:57.184Z,103.47
2018-11-05T00:10:25.455Z,103.73
2018-11-05T00:12:53.768Z,106.80
2018-11-05T00:15:22.928Z,99.23
2018-11-05T00:17:51.173Z,103.73
2018-11-05T00:20:19.421Z,108.50
2018-11-05T00:22:47.676Z,103.30
2018-11-05T00:25:15.905Z,106.05
2018-11-05T00:27:44.152Z,105.60
2018-11-05T00:30:13.451Z,104.97
2018-11-05T00:32:42.067Z,102.80
2018-11-05T00:35:10.327Z,116.97
2018-11-05T00:37:38.876Z,109.37
2018-11-05T00:40:09.006Z,103.30
2018-11-05T00:42:44.810Z,112.57
2018-11-05T00:45:13.517Z,109.27
2018-11-05T00:47:42.297Z,109.07
2018-11-05T00:50:12.343Z,106.10
2018-11-05T00:52:40.603Z,106.17
2018-11-05T00:55:09.771Z,104.33
2018-11-05T00:57:38.052Z,102.17
2018-11-05T01:00:09.923Z,109.73
2018-11-05T01:02:38.413Z,116.17
2018-11-05T01:05:07.700Z,110.73
2018-11-05T01:07:37.081Z,109.17
2018-11-05T01:10:06.020Z,104.33
2018-11-05T01:12:34.277Z,119.50
2018-11-05T01:15:02.560Z,113.57
2018-11-05T01:17:30.825Z,98.00
2018-11-05T01:19:59.091Z,106.50
2018-11-05T01:22:27.361Z,111.13
2018-11-05T01:24:55.612Z,100.30
2018-11-05T01:27:23.836Z,97.83
2018-11-05T01:29:52.137Z,106.27
2018-11-05T01:32:20.379Z,106.70
2018-11-05T01:34:49.540Z,98.50
2018-11-05T01:37:17.777Z,95.87
2018-11-05T01:39:46.011Z,96.03
2018-11-05T01:42:14.236Z,86.87
2018-11-05T01:44:42.485Z,89.63
2018-11-05T01:47:10.876Z,100.90
2018-11-05T01:49:39.132Z,97.90
2018-11-05T01:52:07.992Z,92.80
2018-11-05T01:54:36.268Z,97.97
2018-11-05T01:57:04.771Z,93.73
2018-11-05T01:59:33.024Z,89.00
2018-11-05T02:02:01.251Z,84.87
2018-11-05T02:04:29.855Z,86.17
2018-11-05T02:06:58.127Z,87.60
2018-11-05T02:09:26.396Z,93.23
2018-11-05T02:11:54.593Z,83.73
2018-11-05T02:14:22.888Z,88.05
2018-11-05T02:16:51.135Z,94.63
2018-11-05T02:19:19.652Z,84.90
2018-11-05T02:21:47.915Z,94.10
2018-11-05T02:24:16.120Z,93.67
2018-11-05T02:26:44.366Z,94.07
2018-11-05T02:29:12.640Z,87.23
2018-11-05T02:31:41.408Z,95.00
2018-11-05T02:34:09.709Z,92.73
2018-11-05T02:36:37.973Z,96.63
2018-11-05T02:39:07.828Z,94.03
2018-11-05T02:41:36.223Z,92.87
2018-11-05T02:44:05.144Z,97.67
2018-11-05T02:46:33.407Z,98.63
2018-11-05T02:49:01.727Z,95.20
2018-11-05T02:51:29.920Z,94.00
2018-11-05T02:53:58.259Z,92.07
2018-11-05T02:56:26.506Z,91.33
2018-11-05T02:59:01.491Z,88.57
2018-11-05T03:01:29.735Z,98.77
2018-11-05T03:03:57.983Z,92.77
2018-11-05T03:06:26.256Z,105.03
2018-11-05T03:08:54.596Z,83.37
2018-11-05T03:11:22.869Z,102.93
2018-11-05T03:13:51.112Z,94.50
2018-11-05T03:16:19.360Z,90.80
2018-11-05T03:18:47.781Z,92.00
2018-11-05T03:21:16.043Z,99.47
2018-11-05T03:23:44.304Z,88.17
2018-11-05T03:26:12.548Z,103.50
2018-11-05T03:28:41.420Z,90.57
2018-11-05T03:31:09.681Z,96.67
2018-11-05T03:33:37.911Z,90.00
2018-11-05T03:36:06.721Z,87.13
2018-11-05T03:38:34.979Z,89.37
2018-11-05T03:41:03.223Z,85.37
2018-11-05T03:43:32.511Z,84.70
2018-11-05T03:46:00.776Z,85.13
2018-11-05T03:48:29.026Z,96.70
2018-11-05T03:50:57.258Z,88.53
2018-11-05T03:53:26.114Z,92.37
2018-11-05T03:55:54.419Z,77.93
2018-11-05T03:58:22.672Z,82.43
2018-11-05T04:00:50.921Z,86.07
2018-11-05T04:03:19.189Z,84.37
2018-11-05T04:05:47.442Z,87.37
2018-11-05T04:08:15.648Z,78.93
2018-11-05T04:10:43.891Z,92.57
2018-11-05T04:13:12.125Z,86.27
2018-11-05T04:15:40.531Z,90.67
2018-11-05T04:18:08.688Z,85.43
2018-11-05T04:20:36.972Z,90.47
2018-11-05T04:23:05.387Z,92.77
2018-11-05T04:25:33.640Z,89.37
2018-11-05T04:28:02.023Z,89.85
2018-11-05T04:30:30.147Z,82.07
2018-11-05T04:32:58.421Z,82.90
2018-11-05T04:35:26.644Z,88.07
2018-11-05T04:37:54.881Z,87.03
2018-11-05T04:40:23.135Z,87.83
2018-11-05T04:42:51.351Z,80.30
2018-11-05T04:45:19.586Z,86.03
2018-11-05T04:47:47.860Z,96.30
2018-11-05T04:50:16.086Z,89.85
2018-11-05T04:52:44.696Z,95.40
2018-11-05T04:55:12.940Z,92.53
2018-11-05T04:57:41.220Z,91.67
2018-11-05T05:00:13.753Z,97.63
2018-11-05T05:02:42.535Z,96.27
2018-11-05T05:05:12.048Z,101.80
2018-11-05T05:07:40.372Z,101.37
2018-11-05T05:10:09.170Z,97.57
2018-11-05T05:12:38.251Z,100.93
2018-11-05T05:15:06.789Z,93.50
2018-11-05T05:17:35.073Z,99.37
2018-11-05T05:20:03.403Z,102.30
2018-11-05T05:22:31.690Z,102.43
2018-11-05T05:24:59.927Z,96.10
2018-11-05T05:27:28.163Z,96.93
2018-11-05T05:29:56.440Z,104.97
2018-11-05T05:32:24.744Z,100.23
2018-11-05T05:34:52.973Z,100.50
2018-11-05T05:37:21.225Z,105.90
2018-11-05T05:39:49.455Z,102.80
2018-11-05T05:42:17.675Z,106.60
2018-11-05T05:44:45.941Z,96.47
2018-11-05T05:47:14.205Z,104.77
2018-11-05T05:49:42.496Z,111.57
2018-11-05T05:52:11.272Z,98.23
2018-11-05T05:54:39.536Z,105.97
2018-11-05T05:57:07.795Z,104.77
2018-11-05T05:59:36.081Z,101.62
2018-11-05T06:02:04.908Z,102.70
2018-11-05T06:04:33.148Z,105.73
2018-11-05T06:07:01.374Z,95.20
2018-11-05T06:09:29.640Z,102.47
2018-11-05T06:11:57.909Z,89.73
2018-11-05T06:14:26.159Z,94.27
2018-11-05T06:16:54.416Z,100.83
2018-11-05T06:19:22.628Z,86.67
2018-11-05T06:21:50.960Z,101.67
2018-11-05T06:24:19.140Z,98.07
2018-11-05T06:26:47.363Z,102.50
2018-11-05T06:29:15.555Z,97.87
2018-11-05T06:31:43.824Z,95.20
2018-11-05T06:34:12.093Z,91.30
2018-11-05T06:36:40.331Z,100.93
2018-11-05T06:39:10.932Z,92.40
2018-11-05T06:41:39.544Z,85.27
2018-11-05T06:44:08.214Z,86.90
2018-11-05T06:46:36.637Z,93.97
2018-11-05T06:49:05.282Z,88.50
2018-11-05T06:51:33.396Z,91.57
2018-11-05T06:54:02.076Z,85.27
2018-11-05T06:56:30.356Z,93.17
2018-11-05T06:58:58.573Z,92.93
2018-11-05T07:01:26.832Z,97.37
2018-11-05T07:03:55.088Z,90.63
2018-11-05T07:06:23.345Z,79.50
2018-11-05T07:08:51.696Z,86.27
2018-11-05T07:11:19.976Z,82.53
2018-11-05T07:13:48.195Z,84.83
2018-11-05T07:16:16.463Z,87.07
2018-11-05T07:18:44.799Z,86.93
2018-11-05T07:21:12.904Z,80.27
2018-11-05T07:23:41.212Z,77.97
2018-11-05T07:26:09.433Z,88.60
2018-11-05T07:28:37.735Z,80.07
2018-11-05T07:31:06.075Z,78.20
2018-11-05T07:33:34.510Z,81.50
2018-11-05T07:36:02.555Z,82.83
2018-11-05T07:38:30.835Z,81.07
2018-11-05T07:40:59.029Z,80.07
2018-11-05T07:43:27.268Z,74.50
2018-11-05T07:45:55.503Z,78.17
2018-11-05T07:48:23.733Z,78.67
2018-11-05T07:50:52.091Z,72.60
2018-11-05T07:53:20.537Z,81.57
2018-11-05T07:55:48.780Z,79.37
2018-11-05T07:58:16.992Z,79.37
2018-11-05T08:00:50.659Z,76.93
2018-11-05T08:03:18.872Z,77.83
2018-11-05T08:05:47.095Z,74.43
2018-11-05T08:08:15.379Z,80.13
2018-11-05T08:10:43.588Z,74.40
2018-11-05T08:13:11.828Z,70.13
2018-11-05T08:15:40.111Z,69.50
2018-11-05T08:18:08.367Z,70.17
2018-11-05T08:25:34.516Z,68.73
2018-11-05T08:28:02.790Z,68.27
2018-11-05T08:30:31.008Z,67.63
2018-11-05T08:32:59.240Z,70.07
2018-11-05T08:35:27.538Z,69.37
2018-11-05T08:37:56.028Z,71.90
2018-11-05T08:40:25.835Z,63.80
2018-11-05T08:42:54.881Z,73.20
2018-11-05T08:45:24.376Z,62.80
2018-11-05T08:47:52.576Z,68.13
2018-11-05T08:50:22.046Z,65.33
2018-11-05T08:52:50.196Z,68.60
2018-11-05T08:55:20.696Z,66.07
2018-11-05T08:57:49.100Z,63.07
2018-11-05T09:00:23.155Z,67.43
2018-11-05T09:02:52.133Z,64.63
2018-11-05T09:05:20.486Z,62.00
2018-11-05T09:07:49.522Z,62.27
2018-11-05T09:10:18.023Z,63.13
2018-11-05T09:12:46.132Z,63.93
2018-11-05T09:15:17.752Z,67.67
2018-11-05T09:17:46.328Z,66.50
2018-11-05T09:20:15.624Z,64.93
2018-11-05T09:22:43.898Z,65.23
2018-11-05T09:25:13.053Z,65.27
2018-11-05T09:27:41.379Z,60.27
2018-11-05T09:30:12.048Z,64.07
2018-11-05T09:32:40.345Z,66.20
2018-11-05T09:35:09.157Z,66.03
2018-11-05T09:37:37.503Z,64.17
2018-11-05T09:40:07.892Z,62.87
2018-11-05T09:42:36.234Z,63.80
2018-11-05T09:45:04.941Z,59.40
2018-11-05T09:47:33.238Z,59.27
2018-11-05T09:50:01.489Z,61.17
2018-11-05T09:52:29.912Z,63.40
2018-11-05T09:54:58.116Z,63.93
2018-11-05T09:57:26.451Z,65.13
2018-11-05T09:59:54.680Z,64.00
2018-11-05T10:02:22.953Z,63.77
2018-11-05T10:04:51.529Z,58.60
2018-11-05T10:07:19.511Z,61.30
2018-11-05T10:09:47.867Z,61.47
2018-11-05T10:12:16.024Z,62.97
2018-11-05T10:14:44.259Z,61.83
2018-11-05T10:17:12.500Z,60.53
2018-11-05T10:19:40.747Z,62.40
2018-11-05T10:22:09.045Z,60.60
2018-11-05T10:24:37.422Z,62.07
2018-11-05T10:27:05.620Z,57.60
2018-11-05T10:29:33.831Z,56.07
2018-11-05T10:32:02.085Z,58.63
2018-11-05T10:34:30.378Z,61.53
2018-11-05T10:36:58.607Z,59.30
2018-11-05T10:39:26.867Z,60.93
2018-11-05T10:41:55.096Z,62.97
2018-11-05T10:44:23.312Z,59.60
2018-11-05T10:46:51.539Z,62.23
2018-11-05T10:49:19.779Z,60.43
2018-11-05T10:51:48.052Z,57.83
2018-11-05T10:54:16.763Z,56.83
2018-11-05T10:56:45.003Z,62.37
2018-11-05T10:59:13.349Z,56.37
2018-11-05T11:01:46.960Z,56.83
2018-11-05T11:04:20.654Z,55.37
2018-11-05T11:06:48.894Z,55.73
2018-11-05T11:09:17.143Z,60.17
2018-11-05T11:11:45.371Z,58.67
2018-11-05T11:14:13.646Z,53.97
2018-11-05T11:16:41.883Z,58.20
2018-11-05T11:19:10.155Z,54.77
2018-11-05T11:21:38.452Z,54.87
2018-11-05T11:24:06.782Z,54.43
2018-11-05T11:26:35.073Z,57.00
2018-11-05T11:29:03.488Z,52.53
2018-11-05T11:31:31.673Z,53.27
2018-11-05T11:33:59.920Z,57.73
2018-11-05T11:36:28.245Z,52.97
2018-11-05T11:38:56.534Z,56.73
2018-11-05T11:41:24.784Z,49.47
2018-11-05T11:43:53.058Z,51.17
2018-11-05T11:46:21.252Z,51.30
2018-11-05T11:48:49.506Z,50.53
2018-11-05T11:51:17.728Z,51.73
2018-11-05T11:53:46.047Z,48.57
2018-11-05T11:56:14.281Z,48.80
2018-11-05T11:58:42.527Z,59.03
2018-11-05T12:01:10.796Z,46.27
2018-11-05T12:03:39.132Z,53.23
2018-11-05T12:06:07.416Z,50.93
2018-11-05T12:08:35.671Z,51.53
2018-11-05T12:11:04.370Z,50.80
2018-11-05T12:13:32.668Z,49.47
2018-11-05T12:16:00.915Z,51.47
2018-11-05T12:18:29.166Z,51.07
2018-11-05T12:20:57.450Z,54.17
2018-11-05T12:23:25.724Z,51.98
2018-11-05T12:25:53.972Z,54.37
2018-11-05T12:28:22.228Z,52.73
2018-11-05T12:30:50.452Z,51.07
2018-11-05T12:33:18.676Z,53.37
2018-11-05T12:35:46.912Z,51.87
2018-11-05T12:38:15.180Z,50.20
2018-11-05T12:40:43.431Z,53.23
2018-11-05T12:43:11.708Z,52.37
2018-11-05T12:45:40.005Z,54.80
2018-11-05T12:48:08.308Z,58.58
2018-11-05T12:50:36.663Z,57.53
2018-11-05T12:53:05.109Z,54.10
2018-11-05T12:55:33.359Z,58.73
2018-11-05T12:58:01.671Z,58.57
2018-11-05T13:00:29.916Z,64.10
2018-11-05T13:02:59.460Z,60.73
2018-11-05T13:05:28.544Z,61.10
2018-11-05T13:07:56.780Z,60.00
2018-11-05T13:10:25.264Z,61.40
2018-11-05T13:12:53.683Z,63.03
2018-11-05T13:15:21.995Z,53.80
2018-11-05T13:17:50.407Z,64.47
2018-11-05T13:20:20.797Z,57.93
2018-11-05T13:22:49.143Z,57.90
2018-11-05T13:25:24.164Z,58.00
2018-11-05T13:27:52.564Z,61.93
2018-11-05T13:30:20.949Z,60.33
2018-11-05T13:32:49.184Z,61.37
2018-11-05T13:35:18.742Z,58.00
2018-11-05T13:37:47.974Z,59.53
2018-11-05T13:40:19.012Z,63.63
2018-11-05T13:42:47.702Z,64.70
2018-11-05T13:45:16.383Z,68.47
2018-11-05T13:47:45.712Z,60.70
2018-11-05T13:50:13.794Z,67.00
2018-11-05T13:52:41.974Z,66.57
2018-11-05T13:55:12.490Z,62.87
2018-11-05T13:57:41.610Z,62.30
2018-11-05T14:00:11.913Z,62.85
2018-11-05T14:02:40.347Z,64.37
2018-11-05T14:05:09.272Z,65.03
2018-11-05T14:07:37.599Z,70.23
2018-11-05T14:10:08.265Z,64.10
2018-11-05T14:12:36.662Z,68.60
2018-11-05T14:15:05.565Z,68.23
2018-11-05T14:17:33.971Z,74.10
2018-11-05T14:20:02.220Z,66.07
2018-11-05T14:22:30.440Z,75.50
2018-11-05T14:24:58.709Z,75.60
2018-11-05T14:27:27.056Z,76.17
2018-11-05T14:29:55.496Z,85.45
2018-11-05T14:32:24.441Z,73.20
2018-11-05T14:34:52.798Z,72.47
2018-11-05T14:37:21.239Z,79.53
2018-11-05T14:39:49.487Z,74.73
2018-11-05T14:42:17.728Z,76.07
2018-11-05T14:44:46.008Z,77.10
2018-11-05T14:47:14.275Z,81.43
2018-11-05T14:49:42.581Z,81.43
2018-11-05T14:52:10.903Z,72.27
2018-11-05T14:54:39.186Z,77.58
2018-11-05T14:57:07.788Z,74.37
2018-11-05T14:59:36.344Z,76.83
2018-11-05T15:02:39.156Z,78.23
2018-11-05T15:05:08.792Z,83.30
2018-11-05T15:07:37.464Z,80.80
2018-11-05T15:10:06.572Z,79.90
2018-11-05T15:12:34.819Z,81.40
2018-11-05T15:15:03.080Z,89.23
2018-11-05T15:17:31.339Z,82.70
2018-11-05T15:19:59.855Z,84.27
2018-11-05T15:22:27.885Z,81.22
2018-11-05T15:24:56.157Z,87.93
2018-11-05T15:27:24.409Z,86.47
2018-11-05T15:29:52.633Z,83.30
2018-11-05T15:32:20.901Z,82.37
2018-11-05T15:34:49.164Z,85.60
2018-11-05T15:37:17.396Z,84.73
2018-11-05T15:39:45.661Z,81.77
2018-11-05T15:42:13.928Z,79.93
2018-11-05T15:44:42.172Z,77.67
2018-11-05T15:47:10.513Z,88.27
2018-11-05T15:49:38.782Z,97.37
2018-11-05T15:52:07.154Z,98.70
2018-11-05T15:54:35.575Z,93.80
2018-11-05T15:57:03.664Z,89.03
2018-11-05T15:59:31.889Z,98.17
2018-11-05T16:02:05.533Z,89.83
2018-11-05T16:04:33.878Z,85.60
2018-11-05T16:07:02.097Z,89.80
2018-11-05T16:09:30.413Z,91.47
2018-11-05T16:11:59.289Z,85.80
2018-11-05T16:14:27.542Z,94.30
2018-11-05T16:16:55.763Z,89.40
2018-11-05T16:19:24.030Z,95.23
2018-11-05T16:21:52.449Z,101.47
2018-11-05T16:24:20.710Z,95.57
2018-11-05T16:26:48.980Z,89.87
2018-11-05T16:29:17.264Z,96.97
2018-11-05T16:31:45.506Z,81.47
2018-11-05T16:34:14.461Z,92.87
2018-11-05T16:36:42.748Z,90.57
2018-11-05T16:39:12.768Z,90.77
2018-11-05T16:41:41.574Z,92.17
2018-11-05T16:44:10.484Z,90.57
2018-11-05T16:46:39.377Z,99.85
2018-11-05T16:49:07.899Z,106.00
2018-11-05T16:51:36.273Z,114.93
2018-11-05T16:54:05.518Z,105.03
2018-11-05T16:56:34.266Z,116.93
2018-11-05T16:59:02.549Z,112.62
2018-11-05T17:01:31.119Z,112.67
2018-11-05T17:03:59.157Z,108.27
2018-11-05T17:06:27.441Z,119.67
2018-11-05T17:08:55.764Z,105.10
2018-11-05T17:11:24.039Z,105.53
2018-11-05T17:13:52.339Z,108.83
2018-11-05T17:16:20.594Z,103.27
2018-11-05T17:18:48.904Z,105.97
2018-11-05T17:21:17.203Z,97.17
2018-11-05T17:23:45.487Z,95.67
2018-11-05T17:26:14.156Z,95.17
2018-11-05T17:28:42.407Z,100.37
2018-11-05T17:31:10.725Z,95.07
2018-11-05T17:33:39.510Z,99.10
2018-11-05T17:36:07.836Z,96.23
2018-11-05T17:38:37.071Z,93.37
2018-11-05T17:41:06.072Z,95.53
2018-11-05T17:43:34.509Z,104.00
2018-11-05T17:46:02.833Z,105.90
2018-11-05T17:48:31.327Z,110.13
2018-11-05T17:50:59.833Z,104.67
2018-11-05T17:53:28.088Z,98.10
2018-11-05T17:55:56.763Z,107.80
2018-11-05T17:58:25.137Z,104.10
2018-11-05T18:00:54.331Z,113.73
2018-11-05T18:03:22.601Z,102.40
2018-11-05T18:05:50.963Z,102.17
2018-11-05T18:08:19.356Z,98.23
2018-11-05T18:10:47.621Z,99.83
2018-11-05T18:13:15.903Z,100.60
2018-11-05T18:15:44.608Z,102.63
2018-11-05T18:18:12.915Z,89.47
2018-11-05T18:20:41.299Z,91.33
2018-11-05T18:23:10.682Z,93.17
2018-11-05T18:25:39.220Z,91.33
2018-11-05T18:28:07.502Z,89.93
2018-11-05T18:30:35.904Z,91.00
2018-11-05T18:33:04.207Z,89.77
2018-11-05T18:35:32.653Z,96.10
2018-11-05T18:38:01.001Z,91.37
2018-11-05T18:40:29.314Z,92.60
2018-11-05T18:42:57.706Z,99.63
2018-11-05T18:45:26.152Z,95.10
2018-11-05T18:47:54.505Z,94.83
2018-11-05T18:50:22.846Z,92.67
2018-11-05T18:52:51.108Z,95.20
2018-11-05T18:55:19.453Z,100.30
2018-11-05T18:57:47.843Z,97.77
2018-11-05T19:00:20.684Z,103.17
2018-11-05T19:02:50.683Z,95.63
2018-11-05T19:05:19.364Z,101.93
2018-11-05T19:07:48.737Z,94.73
2018-11-05T19:10:17.056Z,102.60
2018-11-05T19:12:45.401Z,97.17
2018-11-05T19:15:14.783Z,104.73
2018-11-05T19:17:44.125Z,99.53
2018-11-05T19:20:12.722Z,108.20
2018-11-05T19:22:41.977Z,105.13
2018-11-05T19:25:11.413Z,102.47
2018-11-05T19:27:40.181Z,103.03
2018-11-05T19:30:13.924Z,97.20
2018-11-05T19:32:42.227Z,103.37
2018-11-05T19:35:12.450Z,100.00
2018-11-05T19:37:42.784Z,111.13
2018-11-05T19:40:12.514Z,105.57
2018-11-05T19:42:42.076Z,106.93
2018-11-05T19:45:12.833Z,104.07
2018-11-05T19:47:41.863Z,97.30
2018-11-05T19:50:12.504Z,111.37
2018-11-05T19:52:42.126Z,109.97
2018-11-05T19:55:11.817Z,109.73
2018-11-05T19:57:41.741Z,108.37
2018-11-05T20:00:18.569Z,119.90
2018-11-05T20:02:47.863Z,112.27
2018-11-05T20:05:16.623Z,116.77
2018-11-05T20:07:47.537Z,119.90
2018-11-05T20:10:15.903Z,112.80
2018-11-05T20:12:45.903Z,114.47
2018-11-05T20:15:17.932Z,120.93
2018-11-05T20:17:47.252Z,120.73
2018-11-05T20:20:18.106Z,121.33
2018-11-05T20:22:46.548Z,126.90
2018-11-05T20:25:15.788Z,126.87
2018-11-05T20:27:45.089Z,113.13
2018-11-05T20:30:19.339Z,116.80
2018-11-05T20:32:49.220Z,119.37
2018-11-05T20:35:18.044Z,121.77
2018-11-05T20:37:46.726Z,115.57
2018-11-05T20:40:17.203Z,125.53
2018-11-05T20:42:46.836Z,119.90
2018-11-05T20:45:15.861Z,125.43
2018-11-05T20:47:44.386Z,120.57
2018-11-05T20:50:14.094Z,133.87
2018-11-05T20:52:42.512Z,123.60
2018-11-05T20:55:12.332Z,123.17
2018-11-05T20:57:41.099Z,130.50
2018-11-05T21:00:11.298Z,130.20
2018-11-05T21:02:40.229Z,123.53
2018-11-05T21:05:09.546Z,132.53
2018-11-05T21:07:38.032Z,125.80
2018-11-05T21:10:08.180Z,128.37
2018-11-05T21:12:36.708Z,131.37
2018-11-05T21:15:06.452Z,131.93
2018-11-05T21:17:35.598Z,133.40
2018-11-05T21:20:03.885Z,132.33
2018-11-05T21:22:32.569Z,132.13
2018-11-05T21:25:00.824Z,133.33
2018-11-05T21:27:29.195Z,140.83
2018-11-05T21:29:57.495Z,140.27
2018-11-05T21:32:26.018Z,140.37
2018-11-05T21:34:54.519Z,147.07
2018-11-05T21:37:22.745Z,158.07
2018-11-05T21:39:51.012Z,139.77
2018-11-05T21:42:19.481Z,147.43
2018-11-05T21:44:47.779Z,143.00
2018-11-05T21:47:16.138Z,146.70
2018-11-05T21:49:44.452Z,156.67
2018-11-05T21:52:12.709Z,144.67
2018-11-05T21:54:41.027Z,150.47
2018-11-05T21:57:09.286Z,149.83
2018-11-05T21:59:37.644Z,146.80
2018-11-05T22:02:05.974Z,152.67
2018-11-05T22:04:35.003Z,151.97
2018-11-05T22:07:03.301Z,157.00
2018-11-05T22:09:31.599Z,146.07
2018-11-05T22:11:59.873Z,154.63
2018-11-05T22:14:28.154Z,156.33
2018-11-05T22:16:56.441Z,153.77
2018-11-05T22:19:24.899Z,150.57
2018-11-05T22:21:53.208Z,156.53
2018-11-05T22:24:21.463Z,156.17
2018-11-05T22:26:49.732Z,155.33
2018-11-05T22:29:18.025Z,156.97
2018-11-05T22:31:46.291Z,148.43
2018-11-05T22:34:14.699Z,159.27
2018-11-05T22:36:42.992Z,156.50
2018-11-05T22:39:11.272Z,154.33
2018-11-05T22:41:39.671Z,148.20
2018-11-05T22:44:08.183Z,154.60
2018-11-05T22:46:36.790Z,150.20
2018-11-05T22:49:06.468Z,156.27
2018-11-05T22:51:34.716Z,143.67
2018-11-05T22:54:02.956Z,147.10
2018-11-05T22:56:31.228Z,160.90
2018-11-05T22:58:59.489Z,146.47
2018-11-05T23:01:34.043Z,141.43
2018-11-05T23:04:03.672Z,151.03
2018-11-05T23:06:32.760Z,151.07
2018-11-05T23:09:01.006Z,142.67
2018-11-05T23:11:29.259Z,149.60
2018-11-05T23:13:57.496Z,147.47
2018-11-05T23:16:25.926Z,145.60
2018-11-05T23:18:54.268Z,135.53
2018-11-05T23:21:22.499Z,134.90
2018-11-05T23:23:50.768Z,118.80
2018-11-05T23:26:19.166Z,138.77
2018-11-05T23:28:47.417Z,137.03
2018-11-05T23:31:15.853Z,138.33
2018-11-05T23:33:44.079Z,132.43
2018-11-05T23:36:12.358Z,131.03
2018-11-05T23:38:40.609Z,128.40
2018-11-05T23:41:08.872Z,127.93
2018-11-05T23:43:37.119Z,131.37
2018-11-05T23:46:05.377Z,142.50
2018-11-05T23:48:33.837Z,129.17
2018-11-05T23:51:02.123Z,135.73
2018-11-05T23:53:30.360Z,135.13
2018-11-05T23:55:58.640Z,132.30
2018-11-05T23:58:26.860Z,116.60
